Weather at Sedliště Airstrip

Public forecast

Using degrees Celsius for public forecast. Weather courtesy of forecast.io.

Closest aviation weather report (METAR) to Sedliště Airstrip

Closest report is Ostrava Leos Janáček Airport, 10.4 nm (19.2 km) W.

2024/05/21 17:00 (retrieved 13 minutes ago)

LKMT 211700Z 07005KT CAVOK 23/14 Q1008 NOSIG

Closest aviation forecast (TAF) to Sedliště Airstrip

Closest forecast is Ostrava Leos Janáček Airport, 10.4 nm (19.2 km) W.

2024/05/21 12:24 (retrieved 5 hours ago)

TAF TAF LKMT 211100Z 2112/2212 04006KT 9999 SCT035 TEMPO 2112/2121 7000 SHRA BKN030CB TEMPO 2200/2207 -SHRA BKN020 BECMG 2202/2204 22006KT TEMPO 2207/2212 7000 SHRA BKN025TCU PROB30 TEMPO 2210/2212 4000 TSRA BKN015CB